sensor_id;sensor_type;location;lat;lon;timestamp;P1;durP1;ratioP1;P2;durP2;ratioP2
82871;SDS011;72646;43.596;1.428;2024-02-14T00:02:16;9.93;;;4.75;;
82871;SDS011;72646;43.596;1.428;2024-02-14T00:04:42;9.55;;;4.90;;
82871;SDS011;72646;43.596;1.428;2024-02-14T00:07:07;8.98;;;4.60;;
82871;SDS011;72646;43.596;1.428;2024-02-14T00:09:33;9.20;;;4.78;;
82871;SDS011;72646;43.596;1.428;2024-02-14T00:11:59;9.52;;;4.43;;
82871;SDS011;72646;43.596;1.428;2024-02-14T00:14:25;9.20;;;4.70;;
82871;SDS011;72646;43.596;1.428;2024-02-14T00:16:51;9.25;;;4.68;;
82871;SDS011;72646;43.596;1.428;2024-02-14T00:19:16;9.48;;;4.65;;
82871;SDS011;72646;43.596;1.428;2024-02-14T00:21:42;9.07;;;4.78;;
82871;SDS011;72646;43.596;1.428;2024-02-14T00:24:07;11.38;;;4.60;;
82871;SDS011;72646;43.596;1.428;2024-02-14T00:26:33;9.80;;;5.00;;
82871;SDS011;72646;43.596;1.428;2024-02-14T00:28:59;9.45;;;4.68;;
82871;SDS011;72646;43.596;1.428;2024-02-14T00:31:24;9.40;;;3.85;;
82871;SDS011;72646;43.596;1.428;2024-02-14T00:33:50;9.30;;;4.47;;
82871;SDS011;72646;43.596;1.428;2024-02-14T00:36:16;9.15;;;4.35;;
82871;SDS011;72646;43.596;1.428;2024-02-14T00:38:41;8.98;;;4.40;;
82871;SDS011;72646;43.596;1.428;2024-02-14T00:41:07;10.43;;;4.50;;
82871;SDS011;72646;43.596;1.428;2024-02-14T00:43:38;8.65;;;4.75;;
82871;SDS011;72646;43.596;1.428;2024-02-14T00:46:03;9.05;;;4.25;;
82871;SDS011;72646;43.596;1.428;2024-02-14T00:48:29;10.25;;;4.55;;
82871;SDS011;72646;43.596;1.428;2024-02-14T00:50:56;9.43;;;4.95;;
82871;SDS011;72646;43.596;1.428;2024-02-14T00:53:22;10.48;;;4.90;;
82871;SDS011;72646;43.596;1.428;2024-02-14T00:55:47;9.40;;;4.68;;
82871;SDS011;72646;43.596;1.428;2024-02-14T00:58:13;10.00;;;4.28;;
82871;SDS011;72646;43.596;1.428;2024-02-14T01:00:38;8.70;;;4.70;;
82871;SDS011;72646;43.596;1.428;2024-02-14T01:03:03;8.68;;;4.13;;
82871;SDS011;72646;43.596;1.428;2024-02-14T01:05:29;8.80;;;4.57;;
82871;SDS011;72646;43.596;1.428;2024-02-14T01:08:28;9.80;;;4.15;;
82871;SDS011;72646;43.596;1.428;2024-02-14T01:10:46;8.73;;;4.60;;
82871;SDS011;72646;43.596;1.428;2024-02-14T01:13:12;10.00;;;5.03;;
82871;SDS011;72646;43.596;1.428;2024-02-14T01:15:37;8.07;;;4.03;;
82871;SDS011;72646;43.596;1.428;2024-02-14T01:18:03;9.02;;;4.40;;
82871;SDS011;72646;43.596;1.428;2024-02-14T01:20:28;8.93;;;4.55;;
82871;SDS011;72646;43.596;1.428;2024-02-14T01:22:54;9.52;;;4.50;;
82871;SDS011;72646;43.596;1.428;2024-02-14T01:25:20;10.70;;;4.65;;
82871;SDS011;72646;43.596;1.428;2024-02-14T01:27:46;9.10;;;4.82;;
82871;SDS011;72646;43.596;1.428;2024-02-14T01:30:11;9.57;;;4.60;;
82871;SDS011;72646;43.596;1.428;2024-02-14T01:32:37;8.57;;;4.43;;
82871;SDS011;72646;43.596;1.428;2024-02-14T01:35:04;10.13;;;4.45;;
82871;SDS011;72646;43.596;1.428;2024-02-14T01:37:29;9.75;;;4.85;;
82871;SDS011;72646;43.596;1.428;2024-02-14T01:39:55;8.85;;;4.50;;
82871;SDS011;72646;43.596;1.428;2024-02-14T01:42:20;8.77;;;4.30;;
82871;SDS011;72646;43.596;1.428;2024-02-14T01:44:46;9.75;;;4.93;;
82871;SDS011;72646;43.596;1.428;2024-02-14T01:47:11;10.20;;;4.80;;
82871;SDS011;72646;43.596;1.428;2024-02-14T01:49:37;10.02;;;5.10;;
82871;SDS011;72646;43.596;1.428;2024-02-14T01:52:03;9.30;;;4.70;;
82871;SDS011;72646;43.596;1.428;2024-02-14T01:54:30;8.43;;;4.32;;
82871;SDS011;72646;43.596;1.428;2024-02-14T01:56:56;9.80;;;4.55;;
82871;SDS011;72646;43.596;1.428;2024-02-14T01:59:24;10.20;;;4.97;;
82871;SDS011;72646;43.596;1.428;2024-02-14T02:01:50;10.93;;;4.50;;
82871;SDS011;72646;43.596;1.428;2024-02-14T02:04:17;9.50;;;4.70;;
82871;SDS011;72646;43.596;1.428;2024-02-14T02:06:43;9.73;;;4.82;;
82871;SDS011;72646;43.596;1.428;2024-02-14T02:09:09;9.00;;;4.38;;
82871;SDS011;72646;43.596;1.428;2024-02-14T02:11:50;9.10;;;4.43;;
82871;SDS011;72646;43.596;1.428;2024-02-14T02:14:19;9.32;;;4.90;;
82871;SDS011;72646;43.596;1.428;2024-02-14T02:16:46;10.23;;;4.57;;
82871;SDS011;72646;43.596;1.428;2024-02-14T02:19:12;8.75;;;4.57;;
82871;SDS011;72646;43.596;1.428;2024-02-14T02:21:37;10.00;;;4.93;;
82871;SDS011;72646;43.596;1.428;2024-02-14T02:24:03;9.15;;;4.53;;
82871;SDS011;72646;43.596;1.428;2024-02-14T02:26:29;8.93;;;4.30;;
82871;SDS011;72646;43.596;1.428;2024-02-14T02:28:54;8.40;;;4.40;;
82871;SDS011;72646;43.596;1.428;2024-02-14T02:31:20;9.35;;;4.47;;
82871;SDS011;72646;43.596;1.428;2024-02-14T02:33:46;8.30;;;4.30;;
82871;SDS011;72646;43.596;1.428;2024-02-14T02:36:12;9.23;;;4.53;;
82871;SDS011;72646;43.596;1.428;2024-02-14T02:38:37;7.93;;;4.20;;
82871;SDS011;72646;43.596;1.428;2024-02-14T02:41:03;8.55;;;4.40;;
82871;SDS011;72646;43.596;1.428;2024-02-14T02:43:31;8.50;;;4.30;;
82871;SDS011;72646;43.596;1.428;2024-02-14T02:45:58;7.82;;;4.18;;
82871;SDS011;72646;43.596;1.428;2024-02-14T02:48:23;8.75;;;4.50;;
82871;SDS011;72646;43.596;1.428;2024-02-14T02:50:49;9.02;;;4.45;;
82871;SDS011;72646;43.596;1.428;2024-02-14T02:53:15;9.48;;;4.10;;
82871;SDS011;72646;43.596;1.428;2024-02-14T02:55:41;9.45;;;3.90;;
82871;SDS011;72646;43.596;1.428;2024-02-14T02:58:06;8.85;;;3.92;;
82871;SDS011;72646;43.596;1.428;2024-02-14T03:00:32;9.35;;;4.10;;
82871;SDS011;72646;43.596;1.428;2024-02-14T03:02:58;9.50;;;4.53;;
82871;SDS011;72646;43.596;1.428;2024-02-14T03:05:23;9.00;;;4.47;;
82871;SDS011;72646;43.596;1.428;2024-02-14T03:07:49;9.55;;;4.38;;
82871;SDS011;72646;43.596;1.428;2024-02-14T03:10:16;9.52;;;4.13;;
82871;SDS011;72646;43.596;1.428;2024-02-14T03:12:46;8.98;;;4.32;;
82871;SDS011;72646;43.596;1.428;2024-02-14T03:17:38;8.75;;;4.30;;
82871;SDS011;72646;43.596;1.428;2024-02-14T03:20:04;8.88;;;4.47;;
82871;SDS011;72646;43.596;1.428;2024-02-14T03:22:40;8.95;;;4.28;;
82871;SDS011;72646;43.596;1.428;2024-02-14T03:25:11;9.35;;;4.03;;
82871;SDS011;72646;43.596;1.428;2024-02-14T03:27:44;8.32;;;4.05;;
82871;SDS011;72646;43.596;1.428;2024-02-14T03:30:14;8.88;;;4.22;;
82871;SDS011;72646;43.596;1.428;2024-02-14T03:32:41;9.02;;;4.03;;
82871;SDS011;72646;43.596;1.428;2024-02-14T03:35:07;8.77;;;4.10;;
82871;SDS011;72646;43.596;1.428;2024-02-14T03:37:33;8.10;;;4.03;;
82871;SDS011;72646;43.596;1.428;2024-02-14T03:39:58;9.32;;;4.20;;
82871;SDS011;72646;43.596;1.428;2024-02-14T03:42:24;8.10;;;4.10;;
82871;SDS011;72646;43.596;1.428;2024-02-14T03:44:51;9.05;;;4.20;;
82871;SDS011;72646;43.596;1.428;2024-02-14T03:47:16;8.73;;;4.15;;
82871;SDS011;72646;43.596;1.428;2024-02-14T03:49:42;8.95;;;4.13;;
82871;SDS011;72646;43.596;1.428;2024-02-14T03:52:07;8.73;;;4.00;;
82871;SDS011;72646;43.596;1.428;2024-02-14T03:54:38;9.30;;;4.07;;
82871;SDS011;72646;43.596;1.428;2024-02-14T03:57:03;7.78;;;3.80;;
82871;SDS011;72646;43.596;1.428;2024-02-14T03:59:35;8.15;;;4.10;;
82871;SDS011;72646;43.596;1.428;2024-02-14T04:02:01;8.52;;;3.95;;
82871;SDS011;72646;43.596;1.428;2024-02-14T04:04:26;8.70;;;4.00;;
82871;SDS011;72646;43.596;1.428;2024-02-14T04:06:52;8.20;;;3.72;;
82871;SDS011;72646;43.596;1.428;2024-02-14T04:09:17;7.95;;;3.65;;
82871;SDS011;72646;43.596;1.428;2024-02-14T04:11:42;7.68;;;3.88;;
82871;SDS011;72646;43.596;1.428;2024-02-14T04:14:08;7.93;;;3.78;;
82871;SDS011;72646;43.596;1.428;2024-02-14T04:16:33;9.05;;;3.60;;
82871;SDS011;72646;43.596;1.428;2024-02-14T04:18:59;8.02;;;3.60;;
82871;SDS011;72646;43.596;1.428;2024-02-14T04:21:24;8.15;;;3.40;;
82871;SDS011;72646;43.596;1.428;2024-02-14T04:23:50;7.22;;;3.47;;
82871;SDS011;72646;43.596;1.428;2024-02-14T04:26:22;7.78;;;3.53;;
82871;SDS011;72646;43.596;1.428;2024-02-14T04:28:47;7.80;;;3.50;;
82871;SDS011;72646;43.596;1.428;2024-02-14T04:31:13;7.90;;;3.75;;
82871;SDS011;72646;43.596;1.428;2024-02-14T04:33:38;7.65;;;3.60;;
82871;SDS011;72646;43.596;1.428;2024-02-14T04:36:04;7.50;;;3.70;;
82871;SDS011;72646;43.596;1.428;2024-02-14T04:38:31;8.75;;;3.70;;
82871;SDS011;72646;43.596;1.428;2024-02-14T04:40:56;7.90;;;3.72;;
82871;SDS011;72646;43.596;1.428;2024-02-14T04:43:23;6.57;;;2.97;;
82871;SDS011;72646;43.596;1.428;2024-02-14T04:45:51;8.00;;;3.80;;
82871;SDS011;72646;43.596;1.428;2024-02-14T04:48:17;7.72;;;3.45;;
82871;SDS011;72646;43.596;1.428;2024-02-14T04:50:42;8.73;;;3.80;;
82871;SDS011;72646;43.596;1.428;2024-02-14T04:53:08;7.00;;;3.38;;
82871;SDS011;72646;43.596;1.428;2024-02-14T04:55:33;8.15;;;3.50;;
82871;SDS011;72646;43.596;1.428;2024-02-14T04:57:59;6.93;;;3.17;;
82871;SDS011;72646;43.596;1.428;2024-02-14T05:00:24;7.45;;;3.15;;
82871;SDS011;72646;43.596;1.428;2024-02-14T05:02:50;7.97;;;3.53;;
82871;SDS011;72646;43.596;1.428;2024-02-14T05:05:16;7.18;;;3.45;;
82871;SDS011;72646;43.596;1.428;2024-02-14T05:07:41;9.60;;;3.70;;
82871;SDS011;72646;43.596;1.428;2024-02-14T05:10:07;7.60;;;3.40;;
82871;SDS011;72646;43.596;1.428;2024-02-14T05:12:32;7.15;;;3.38;;
82871;SDS011;72646;43.596;1.428;2024-02-14T05:14:58;7.32;;;3.00;;
82871;SDS011;72646;43.596;1.428;2024-02-14T05:17:24;7.82;;;3.65;;
82871;SDS011;72646;43.596;1.428;2024-02-14T05:19:49;7.57;;;3.35;;
82871;SDS011;72646;43.596;1.428;2024-02-14T05:22:15;7.65;;;3.65;;
82871;SDS011;72646;43.596;1.428;2024-02-14T05:24:40;7.82;;;3.10;;
82871;SDS011;72646;43.596;1.428;2024-02-14T05:27:05;8.40;;;3.58;;
82871;SDS011;72646;43.596;1.428;2024-02-14T05:29:31;7.65;;;3.08;;
82871;SDS011;72646;43.596;1.428;2024-02-14T05:31:57;6.70;;;3.03;;
82871;SDS011;72646;43.596;1.428;2024-02-14T05:34:22;8.20;;;3.50;;
82871;SDS011;72646;43.596;1.428;2024-02-14T05:36:47;8.20;;;3.67;;
82871;SDS011;72646;43.596;1.428;2024-02-14T05:39:13;7.07;;;3.20;;
82871;SDS011;72646;43.596;1.428;2024-02-14T05:41:39;7.47;;;3.58;;
82871;SDS011;72646;43.596;1.428;2024-02-14T05:44:05;6.68;;;3.05;;
82871;SDS011;72646;43.596;1.428;2024-02-14T05:46:31;6.72;;;2.95;;
82871;SDS011;72646;43.596;1.428;2024-02-14T05:48:56;7.28;;;3.20;;
82871;SDS011;72646;43.596;1.428;2024-02-14T05:51:22;7.47;;;3.22;;
82871;SDS011;72646;43.596;1.428;2024-02-14T05:53:48;7.57;;;3.15;;
82871;SDS011;72646;43.596;1.428;2024-02-14T05:56:14;7.15;;;3.08;;
82871;SDS011;72646;43.596;1.428;2024-02-14T05:58:39;6.85;;;3.13;;
82871;SDS011;72646;43.596;1.428;2024-02-14T06:01:04;7.43;;;3.10;;
82871;SDS011;72646;43.596;1.428;2024-02-14T06:05:56;7.70;;;3.05;;
82871;SDS011;72646;43.596;1.428;2024-02-14T06:08:22;7.30;;;3.25;;
82871;SDS011;72646;43.596;1.428;2024-02-14T06:10:48;8.13;;;2.83;;
82871;SDS011;72646;43.596;1.428;2024-02-14T06:13:14;7.32;;;3.00;;
82871;SDS011;72646;43.596;1.428;2024-02-14T06:15:39;7.57;;;3.45;;
82871;SDS011;72646;43.596;1.428;2024-02-14T06:18:05;7.70;;;3.40;;
82871;SDS011;72646;43.596;1.428;2024-02-14T06:20:31;8.40;;;3.17;;
82871;SDS011;72646;43.596;1.428;2024-02-14T06:22:57;7.22;;;3.30;;
82871;SDS011;72646;43.596;1.428;2024-02-14T06:25:22;7.05;;;2.95;;
82871;SDS011;72646;43.596;1.428;2024-02-14T06:27:48;9.20;;;3.17;;
82871;SDS011;72646;43.596;1.428;2024-02-14T06:30:13;7.07;;;3.00;;
82871;SDS011;72646;43.596;1.428;2024-02-14T06:32:39;7.28;;;2.90;;
82871;SDS011;72646;43.596;1.428;2024-02-14T06:35:05;7.82;;;3.30;;
82871;SDS011;72646;43.596;1.428;2024-02-14T06:37:30;7.00;;;2.70;;
82871;SDS011;72646;43.596;1.428;2024-02-14T06:39:56;7.25;;;3.10;;
82871;SDS011;72646;43.596;1.428;2024-02-14T06:42:21;7.35;;;3.05;;
82871;SDS011;72646;43.596;1.428;2024-02-14T06:44:47;7.38;;;3.00;;
82871;SDS011;72646;43.596;1.428;2024-02-14T06:47:12;7.60;;;3.33;;
82871;SDS011;72646;43.596;1.428;2024-02-14T06:49:38;6.47;;;3.20;;
82871;SDS011;72646;43.596;1.428;2024-02-14T06:52:03;7.47;;;2.95;;
82871;SDS011;72646;43.596;1.428;2024-02-14T06:54:29;7.90;;;3.10;;
82871;SDS011;72646;43.596;1.428;2024-02-14T06:56:55;8.68;;;3.22;;
82871;SDS011;72646;43.596;1.428;2024-02-14T06:59:20;7.22;;;3.00;;
82871;SDS011;72646;43.596;1.428;2024-02-14T07:01:46;7.95;;;3.60;;
82871;SDS011;72646;43.596;1.428;2024-02-14T07:04:11;7.75;;;3.25;;
82871;SDS011;72646;43.596;1.428;2024-02-14T07:06:36;8.32;;;3.40;;
82871;SDS011;72646;43.596;1.428;2024-02-14T07:09:02;7.93;;;3.15;;
82871;SDS011;72646;43.596;1.428;2024-02-14T07:11:27;8.10;;;3.22;;
82871;SDS011;72646;43.596;1.428;2024-02-14T07:13:53;7.90;;;3.25;;
82871;SDS011;72646;43.596;1.428;2024-02-14T07:16:18;8.23;;;3.53;;
82871;SDS011;72646;43.596;1.428;2024-02-14T07:18:44;8.07;;;3.20;;
82871;SDS011;72646;43.596;1.428;2024-02-14T07:21:09;7.75;;;3.13;;
82871;SDS011;72646;43.596;1.428;2024-02-14T07:23:35;7.10;;;3.20;;
82871;SDS011;72646;43.596;1.428;2024-02-14T07:26:00;7.28;;;3.15;;
82871;SDS011;72646;43.596;1.428;2024-02-14T07:28:26;8.50;;;3.15;;
82871;SDS011;72646;43.596;1.428;2024-02-14T07:30:52;7.30;;;3.08;;
82871;SDS011;72646;43.596;1.428;2024-02-14T07:33:17;8.00;;;3.50;;
82871;SDS011;72646;43.596;1.428;2024-02-14T07:35:43;7.20;;;3.17;;
82871;SDS011;72646;43.596;1.428;2024-02-14T07:38:08;8.48;;;3.58;;
82871;SDS011;72646;43.596;1.428;2024-02-14T07:40:34;8.35;;;3.30;;
82871;SDS011;72646;43.596;1.428;2024-02-14T07:42:59;8.60;;;3.47;;
82871;SDS011;72646;43.596;1.428;2024-02-14T07:45:25;7.13;;;3.30;;
82871;SDS011;72646;43.596;1.428;2024-02-14T07:47:51;7.85;;;3.13;;
82871;SDS011;72646;43.596;1.428;2024-02-14T07:50:16;10.45;;;3.33;;
82871;SDS011;72646;43.596;1.428;2024-02-14T07:52:43;8.55;;;3.42;;
82871;SDS011;72646;43.596;1.428;2024-02-14T07:55:11;7.93;;;3.20;;
82871;SDS011;72646;43.596;1.428;2024-02-14T07:57:42;7.15;;;3.10;;
82871;SDS011;72646;43.596;1.428;2024-02-14T08:00:08;7.95;;;3.33;;
82871;SDS011;72646;43.596;1.428;2024-02-14T08:02:35;7.85;;;3.17;;
82871;SDS011;72646;43.596;1.428;2024-02-14T08:05:01;8.13;;;3.30;;
82871;SDS011;72646;43.596;1.428;2024-02-14T08:07:27;7.15;;;3.03;;
82871;SDS011;72646;43.596;1.428;2024-02-14T08:09:53;7.82;;;3.30;;
82871;SDS011;72646;43.596;1.428;2024-02-14T08:12:20;9.10;;;3.42;;
82871;SDS011;72646;43.596;1.428;2024-02-14T08:14:46;8.00;;;3.58;;
82871;SDS011;72646;43.596;1.428;2024-02-14T08:17:12;7.63;;;3.08;;
82871;SDS011;72646;43.596;1.428;2024-02-14T08:19:38;9.10;;;3.22;;
82871;SDS011;72646;43.596;1.428;2024-02-14T08:22:04;9.02;;;3.63;;
82871;SDS011;72646;43.596;1.428;2024-02-14T08:24:30;8.80;;;3.50;;
82871;SDS011;72646;43.596;1.428;2024-02-14T08:26:56;7.32;;;3.28;;
82871;SDS011;72646;43.596;1.428;2024-02-14T08:29:22;8.43;;;3.45;;
82871;SDS011;72646;43.596;1.428;2024-02-14T08:31:48;8.25;;;3.65;;
82871;SDS011;72646;43.596;1.428;2024-02-14T08:34:14;9.35;;;3.28;;
82871;SDS011;72646;43.596;1.428;2024-02-14T08:36:40;8.23;;;3.30;;
82871;SDS011;72646;43.596;1.428;2024-02-14T08:39:07;8.35;;;3.20;;
82871;SDS011;72646;43.596;1.428;2024-02-14T08:41:32;8.60;;;3.33;;
82871;SDS011;72646;43.596;1.428;2024-02-14T08:43:58;10.05;;;3.42;;
82871;SDS011;72646;43.596;1.428;2024-02-14T08:46:24;8.70;;;3.28;;
82871;SDS011;72646;43.596;1.428;2024-02-14T08:48:50;8.50;;;3.60;;
82871;SDS011;72646;43.596;1.428;2024-02-14T08:51:17;10.35;;;3.50;;
82871;SDS011;72646;43.596;1.428;2024-02-14T08:53:45;7.78;;;2.80;;
82871;SDS011;72646;43.596;1.428;2024-02-14T08:56:11;9.00;;;3.55;;
82871;SDS011;72646;43.596;1.428;2024-02-14T08:58:37;8.30;;;3.22;;
82871;SDS011;72646;43.596;1.428;2024-02-14T09:01:02;8.10;;;2.95;;
82871;SDS011;72646;43.596;1.428;2024-02-14T09:03:27;8.00;;;3.42;;
82871;SDS011;72646;43.596;1.428;2024-02-14T09:05:54;8.13;;;3.35;;
82871;SDS011;72646;43.596;1.428;2024-02-14T09:08:21;10.50;;;3.90;;
82871;SDS011;72646;43.596;1.428;2024-02-14T09:10:49;7.25;;;2.83;;
82871;SDS011;72646;43.596;1.428;2024-02-14T09:13:15;9.23;;;3.40;;
82871;SDS011;72646;43.596;1.428;2024-02-14T09:15:40;8.05;;;3.00;;
82871;SDS011;72646;43.596;1.428;2024-02-14T09:18:05;7.53;;;3.10;;
82871;SDS011;72646;43.596;1.428;2024-02-14T09:20:31;8.73;;;3.25;;
82871;SDS011;72646;43.596;1.428;2024-02-14T09:22:56;8.05;;;3.17;;
82871;SDS011;72646;43.596;1.428;2024-02-14T09:25:23;7.97;;;3.30;;
82871;SDS011;72646;43.596;1.428;2024-02-14T09:27:50;8.63;;;2.80;;
82871;SDS011;72646;43.596;1.428;2024-02-14T09:30:16;8.75;;;3.38;;
82871;SDS011;72646;43.596;1.428;2024-02-14T09:32:43;6.47;;;2.85;;
82871;SDS011;72646;43.596;1.428;2024-02-14T09:35:09;7.85;;;3.72;;
82871;SDS011;72646;43.596;1.428;2024-02-14T09:37:35;7.43;;;3.17;;
82871;SDS011;72646;43.596;1.428;2024-02-14T09:40:02;7.70;;;3.17;;
82871;SDS011;72646;43.596;1.428;2024-02-14T09:42:33;8.57;;;3.10;;
82871;SDS011;72646;43.596;1.428;2024-02-14T09:45:07;8.35;;;3.00;;
82871;SDS011;72646;43.596;1.428;2024-02-14T09:47:33;8.95;;;3.63;;
82871;SDS011;72646;43.596;1.428;2024-02-14T09:52:31;8.27;;;2.88;;
82871;SDS011;72646;43.596;1.428;2024-02-14T09:54:58;8.60;;;3.05;;
82871;SDS011;72646;43.596;1.428;2024-02-14T09:57:24;9.02;;;3.03;;
82871;SDS011;72646;43.596;1.428;2024-02-14T09:59:51;7.80;;;3.08;;
82871;SDS011;72646;43.596;1.428;2024-02-14T10:02:19;7.03;;;2.80;;
82871;SDS011;72646;43.596;1.428;2024-02-14T10:04:45;8.73;;;3.60;;
82871;SDS011;72646;43.596;1.428;2024-02-14T10:07:10;8.52;;;2.95;;
82871;SDS011;72646;43.596;1.428;2024-02-14T10:09:42;7.50;;;3.20;;
82871;SDS011;72646;43.596;1.428;2024-02-14T10:12:08;8.70;;;3.28;;
82871;SDS011;72646;43.596;1.428;2024-02-14T10:17:00;8.52;;;2.83;;
82871;SDS011;72646;43.596;1.428;2024-02-14T10:19:26;8.50;;;3.00;;
82871;SDS011;72646;43.596;1.428;2024-02-14T10:21:55;7.03;;;2.75;;
82871;SDS011;72646;43.596;1.428;2024-02-14T10:24:27;8.27;;;3.40;;
82871;SDS011;72646;43.596;1.428;2024-02-14T10:26:53;7.40;;;2.63;;
82871;SDS011;72646;43.596;1.428;2024-02-14T10:29:19;7.13;;;3.00;;
82871;SDS011;72646;43.596;1.428;2024-02-14T10:31:48;7.70;;;3.13;;
82871;SDS011;72646;43.596;1.428;2024-02-14T10:34:14;7.93;;;3.00;;
82871;SDS011;72646;43.596;1.428;2024-02-14T10:36:39;7.13;;;2.55;;
82871;SDS011;72646;43.596;1.428;2024-02-14T10:39:09;7.40;;;3.22;;
82871;SDS011;72646;43.596;1.428;2024-02-14T10:41:36;6.78;;;3.33;;
82871;SDS011;72646;43.596;1.428;2024-02-14T10:44:02;7.70;;;3.03;;
82871;SDS011;72646;43.596;1.428;2024-02-14T10:46:34;6.63;;;2.80;;
82871;SDS011;72646;43.596;1.428;2024-02-14T10:49:03;9.85;;;3.50;;
82871;SDS011;72646;43.596;1.428;2024-02-14T10:51:33;7.65;;;3.10;;
82871;SDS011;72646;43.596;1.428;2024-02-14T10:54:04;7.82;;;2.80;;
82871;SDS011;72646;43.596;1.428;2024-02-14T10:56:35;7.28;;;2.67;;
82871;SDS011;72646;43.596;1.428;2024-02-14T10:59:04;12.13;;;3.05;;
82871;SDS011;72646;43.596;1.428;2024-02-14T11:01:31;9.15;;;2.95;;
82871;SDS011;72646;43.596;1.428;2024-02-14T11:03:59;7.57;;;3.33;;
82871;SDS011;72646;43.596;1.428;2024-02-14T11:06:26;8.35;;;2.80;;
82871;SDS011;72646;43.596;1.428;2024-02-14T11:11:24;8.65;;;2.92;;
82871;SDS011;72646;43.596;1.428;2024-02-14T11:13:53;7.10;;;2.80;;
82871;SDS011;72646;43.596;1.428;2024-02-14T11:16:22;8.27;;;2.97;;
82871;SDS011;72646;43.596;1.428;2024-02-14T11:18:50;8.50;;;2.83;;
82871;SDS011;72646;43.596;1.428;2024-02-14T11:21:16;8.88;;;2.90;;
82871;SDS011;72646;43.596;1.428;2024-02-14T11:23:52;8.30;;;2.88;;
82871;SDS011;72646;43.596;1.428;2024-02-14T11:26:18;10.45;;;2.85;;
82871;SDS011;72646;43.596;1.428;2024-02-14T11:28:43;9.23;;;3.35;;
82871;SDS011;72646;43.596;1.428;2024-02-14T11:31:16;8.02;;;2.90;;
82871;SDS011;72646;43.596;1.428;2024-02-14T11:33:41;8.15;;;2.78;;
82871;SDS011;72646;43.596;1.428;2024-02-14T11:36:10;8.55;;;3.00;;
82871;SDS011;72646;43.596;1.428;2024-02-14T11:38:37;9.30;;;2.65;;
82871;SDS011;72646;43.596;1.428;2024-02-14T11:41:02;7.43;;;2.88;;
82871;SDS011;72646;43.596;1.428;2024-02-14T11:43:28;8.63;;;2.55;;
82871;SDS011;72646;43.596;1.428;2024-02-14T11:45:54;7.57;;;2.65;;
82871;SDS011;72646;43.596;1.428;2024-02-14T11:48:20;10.35;;;2.70;;
82871;SDS011;72646;43.596;1.428;2024-02-14T11:53:12;8.27;;;2.47;;
82871;SDS011;72646;43.596;1.428;2024-02-14T11:55:41;9.05;;;3.00;;
82871;SDS011;72646;43.596;1.428;2024-02-14T11:58:10;9.80;;;2.90;;
82871;SDS011;72646;43.596;1.428;2024-02-14T12:00:43;8.60;;;2.58;;
82871;SDS011;72646;43.596;1.428;2024-02-14T12:03:13;8.45;;;2.80;;
82871;SDS011;72646;43.596;1.428;2024-02-14T12:05:41;10.82;;;2.90;;
82871;SDS011;72646;43.596;1.428;2024-02-14T12:08:09;8.50;;;2.72;;
82871;SDS011;72646;43.596;1.428;2024-02-14T12:10:35;7.68;;;2.53;;
82871;SDS011;72646;43.596;1.428;2024-02-14T12:13:09;7.90;;;2.55;;
82871;SDS011;72646;43.596;1.428;2024-02-14T12:15:41;8.35;;;2.78;;
82871;SDS011;72646;43.596;1.428;2024-02-14T12:18:09;10.38;;;2.70;;
82871;SDS011;72646;43.596;1.428;2024-02-14T12:20:35;8.52;;;2.50;;
82871;SDS011;72646;43.596;1.428;2024-02-14T12:25:27;7.47;;;2.42;;
82871;SDS011;72646;43.596;1.428;2024-02-14T12:27:52;7.22;;;2.83;;
82871;SDS011;72646;43.596;1.428;2024-02-14T12:30:18;8.45;;;2.47;;
82871;SDS011;72646;43.596;1.428;2024-02-14T12:32:46;8.70;;;2.63;;
82871;SDS011;72646;43.596;1.428;2024-02-14T12:35:23;8.00;;;2.40;;
82871;SDS011;72646;43.596;1.428;2024-02-14T12:37:48;9.18;;;2.40;;
82871;SDS011;72646;43.596;1.428;2024-02-14T12:40:14;7.97;;;2.50;;
82871;SDS011;72646;43.596;1.428;2024-02-14T12:42:39;9.95;;;2.78;;
82871;SDS011;72646;43.596;1.428;2024-02-14T12:45:05;7.25;;;2.65;;
82871;SDS011;72646;43.596;1.428;2024-02-14T12:47:32;8.07;;;2.40;;
82871;SDS011;72646;43.596;1.428;2024-02-14T12:50:00;6.50;;;2.35;;
82871;SDS011;72646;43.596;1.428;2024-02-14T12:52:25;7.80;;;2.28;;
82871;SDS011;72646;43.596;1.428;2024-02-14T12:54:51;5.95;;;2.10;;
82871;SDS011;72646;43.596;1.428;2024-02-14T12:57:16;7.22;;;2.58;;
82871;SDS011;72646;43.596;1.428;2024-02-14T12:59:46;5.90;;;2.22;;
82871;SDS011;72646;43.596;1.428;2024-02-14T13:02:12;8.82;;;2.30;;
82871;SDS011;72646;43.596;1.428;2024-02-14T13:04:38;6.25;;;2.08;;
82871;SDS011;72646;43.596;1.428;2024-02-14T13:07:08;8.05;;;2.30;;
82871;SDS011;72646;43.596;1.428;2024-02-14T13:09:34;7.57;;;2.50;;
82871;SDS011;72646;43.596;1.428;2024-02-14T13:11:59;7.97;;;2.25;;
82871;SDS011;72646;43.596;1.428;2024-02-14T13:14:25;8.13;;;2.67;;
82871;SDS011;72646;43.596;1.428;2024-02-14T13:16:50;8.30;;;2.45;;
82871;SDS011;72646;43.596;1.428;2024-02-14T13:19:16;6.82;;;2.22;;
82871;SDS011;72646;43.596;1.428;2024-02-14T13:21:42;7.03;;;2.20;;
82871;SDS011;72646;43.596;1.428;2024-02-14T13:24:10;6.78;;;2.20;;
82871;SDS011;72646;43.596;1.428;2024-02-14T13:26:37;6.88;;;2.45;;
82871;SDS011;72646;43.596;1.428;2024-02-14T13:29:03;8.00;;;2.10;;
82871;SDS011;72646;43.596;1.428;2024-02-14T13:31:28;5.95;;;2.15;;
82871;SDS011;72646;43.596;1.428;2024-02-14T13:33:54;7.80;;;2.45;;
82871;SDS011;72646;43.596;1.428;2024-02-14T13:36:19;6.97;;;2.08;;
82871;SDS011;72646;43.596;1.428;2024-02-14T13:38:45;7.05;;;2.53;;
82871;SDS011;72646;43.596;1.428;2024-02-14T13:41:11;7.95;;;2.60;;
82871;SDS011;72646;43.596;1.428;2024-02-14T13:43:37;8.13;;;2.45;;
82871;SDS011;72646;43.596;1.428;2024-02-14T13:46:03;6.85;;;2.42;;
82871;SDS011;72646;43.596;1.428;2024-02-14T13:48:28;7.18;;;2.30;;
82871;SDS011;72646;43.596;1.428;2024-02-14T13:50:54;5.90;;;2.13;;
82871;SDS011;72646;43.596;1.428;2024-02-14T13:53:19;6.82;;;2.35;;
82871;SDS011;72646;43.596;1.428;2024-02-14T13:55:47;6.00;;;2.17;;
82871;SDS011;72646;43.596;1.428;2024-02-14T13:58:13;6.90;;;2.20;;
82871;SDS011;72646;43.596;1.428;2024-02-14T14:00:42;6.93;;;2.08;;
82871;SDS011;72646;43.596;1.428;2024-02-14T14:03:08;6.57;;;2.08;;
82871;SDS011;72646;43.596;1.428;2024-02-14T14:05:33;6.22;;;2.10;;
82871;SDS011;72646;43.596;1.428;2024-02-14T14:07:58;6.35;;;1.90;;
82871;SDS011;72646;43.596;1.428;2024-02-14T14:10:26;6.40;;;2.03;;
82871;SDS011;72646;43.596;1.428;2024-02-14T14:12:52;6.28;;;2.00;;
82871;SDS011;72646;43.596;1.428;2024-02-14T14:15:18;6.15;;;2.03;;
82871;SDS011;72646;43.596;1.428;2024-02-14T14:17:44;6.50;;;2.25;;
82871;SDS011;72646;43.596;1.428;2024-02-14T14:20:09;6.43;;;2.10;;
82871;SDS011;72646;43.596;1.428;2024-02-14T14:22:35;7.90;;;2.75;;
82871;SDS011;72646;43.596;1.428;2024-02-14T14:25:03;7.25;;;2.00;;
82871;SDS011;72646;43.596;1.428;2024-02-14T14:27:29;5.97;;;2.00;;
82871;SDS011;72646;43.596;1.428;2024-02-14T14:29:55;6.10;;;1.85;;
82871;SDS011;72646;43.596;1.428;2024-02-14T14:32:20;6.63;;;2.30;;
82871;SDS011;72646;43.596;1.428;2024-02-14T14:34:46;6.45;;;2.08;;
82871;SDS011;72646;43.596;1.428;2024-02-14T14:37:12;7.07;;;2.30;;
82871;SDS011;72646;43.596;1.428;2024-02-14T14:39:37;6.78;;;2.03;;
82871;SDS011;72646;43.596;1.428;2024-02-14T14:42:02;6.32;;;2.20;;
82871;SDS011;72646;43.596;1.428;2024-02-14T14:44:29;7.22;;;2.30;;
82871;SDS011;72646;43.596;1.428;2024-02-14T14:46:55;6.97;;;2.00;;
82871;SDS011;72646;43.596;1.428;2024-02-14T14:49:21;7.22;;;2.33;;
82871;SDS011;72646;43.596;1.428;2024-02-14T14:51:46;6.53;;;2.20;;
82871;SDS011;72646;43.596;1.428;2024-02-14T14:54:12;7.55;;;2.20;;
82871;SDS011;72646;43.596;1.428;2024-02-14T14:56:37;7.57;;;2.38;;
82871;SDS011;72646;43.596;1.428;2024-02-14T14:59:03;7.28;;;2.20;;
82871;SDS011;72646;43.596;1.428;2024-02-14T15:01:31;7.50;;;2.03;;